sensor_id;sensor_type;location;lat;lon;timestamp;pressure;altitude;pressure_sealevel;temperature;humidity
55373;BME280;70018;47.838;16.490;2023-08-20T00:00:39;99649.25;;;17.79;69.93
55373;BME280;70018;47.838;16.490;2023-08-20T00:03:12;99649.69;;;17.77;70.06
55373;BME280;70018;47.838;16.490;2023-08-20T00:05:40;99648.91;;;17.77;69.99
55373;BME280;70018;47.838;16.490;2023-08-20T00:08:07;99656.91;;;17.78;69.87
55373;BME280;70018;47.838;16.490;2023-08-20T00:10:34;99654.44;;;17.80;69.58
55373;BME280;70018;47.838;16.490;2023-08-20T00:13:00;99653.72;;;17.76;70.21
55373;BME280;70018;47.838;16.490;2023-08-20T00:15:27;99662.59;;;17.75;69.93
55373;BME280;70018;47.838;16.490;2023-08-20T00:17:55;99655.50;;;17.70;69.73
55373;BME280;70018;47.838;16.490;2023-08-20T00:20:22;99646.72;;;17.68;70.04
55373;BME280;70018;47.838;16.490;2023-08-20T00:22:49;99652.06;;;17.63;70.24
55373;BME280;70018;47.838;16.490;2023-08-20T00:25:17;99646.16;;;17.57;70.12
55373;BME280;70018;47.838;16.490;2023-08-20T00:27:44;99659.72;;;17.59;70.11
55373;BME280;70018;47.838;16.490;2023-08-20T00:30:11;99652.63;;;17.54;70.08
55373;BME280;70018;47.838;16.490;2023-08-20T00:32:38;99646.84;;;17.61;70.10
55373;BME280;70018;47.838;16.490;2023-08-20T00:35:05;99656.56;;;17.57;70.10
55373;BME280;70018;47.838;16.490;2023-08-20T00:37:34;99643.41;;;17.54;70.10
55373;BME280;70018;47.838;16.490;2023-08-20T00:40:02;99643.00;;;17.55;70.08
55373;BME280;70018;47.838;16.490;2023-08-20T00:42:34;99636.84;;;17.60;69.95
55373;BME280;70018;47.838;16.490;2023-08-20T00:45:00;99644.78;;;17.65;69.85
55373;BME280;70018;47.838;16.490;2023-08-20T00:47:27;99643.00;;;17.71;69.86
55373;BME280;70018;47.838;16.490;2023-08-20T00:49:54;99635.50;;;17.68;69.90
55373;BME280;70018;47.838;16.490;2023-08-20T00:52:22;99649.88;;;17.70;69.88
55373;BME280;70018;47.838;16.490;2023-08-20T00:54:49;99648.28;;;17.69;69.32
55373;BME280;70018;47.838;16.490;2023-08-20T00:57:22;99647.59;;;17.65;69.66
55373;BME280;70018;47.838;16.490;2023-08-20T00:59:50;99659.38;;;17.57;69.99
55373;BME280;70018;47.838;16.490;2023-08-20T01:02:18;99658.75;;;17.49;70.43
55373;BME280;70018;47.838;16.490;2023-08-20T01:04:46;99669.97;;;17.49;70.23
55373;BME280;70018;47.838;16.490;2023-08-20T01:07:26;99667.63;;;17.48;70.16
55373;BME280;70018;47.838;16.490;2023-08-20T01:10:04;99662.97;;;17.41;70.48
55373;BME280;70018;47.838;16.490;2023-08-20T01:12:34;99665.16;;;17.33;70.37
55373;BME280;70018;47.838;16.490;2023-08-20T01:15:02;99663.28;;;17.27;70.82
55373;BME280;70018;47.838;16.490;2023-08-20T01:17:28;99666.09;;;17.27;70.84
55373;BME280;70018;47.838;16.490;2023-08-20T01:19:55;99662.06;;;17.28;70.53
55373;BME280;70018;47.838;16.490;2023-08-20T01:28:27;99661.72;;;17.26;70.96
55373;BME280;70018;47.838;16.490;2023-08-20T01:30:57;99664.50;;;17.26;71.04
55373;BME280;70018;47.838;16.490;2023-08-20T01:33:24;99670.03;;;17.29;70.89
55373;BME280;70018;47.838;16.490;2023-08-20T01:35:54;99680.84;;;17.31;70.69
55373;BME280;70018;47.838;16.490;2023-08-20T01:38:21;99675.22;;;17.31;70.70
55373;BME280;70018;47.838;16.490;2023-08-20T01:40:48;99672.41;;;17.31;70.59
55373;BME280;70018;47.838;16.490;2023-08-20T01:43:15;99666.81;;;17.31;70.32
55373;BME280;70018;47.838;16.490;2023-08-20T01:45:43;99674.84;;;17.29;70.83
55373;BME280;70018;47.838;16.490;2023-08-20T01:48:10;99672.50;;;17.27;70.69
55373;BME280;70018;47.838;16.490;2023-08-20T01:50:36;99671.34;;;17.25;70.60
55373;BME280;70018;47.838;16.490;2023-08-20T01:53:03;99668.19;;;17.23;70.81
55373;BME280;70018;47.838;16.490;2023-08-20T01:55:30;99678.63;;;17.22;70.62
55373;BME280;70018;47.838;16.490;2023-08-20T01:57:58;99674.66;;;17.20;70.96
55373;BME280;70018;47.838;16.490;2023-08-20T02:00:25;99665.38;;;17.23;71.04
55373;BME280;70018;47.838;16.490;2023-08-20T02:02:52;99669.41;;;17.22;71.05
55373;BME280;70018;47.838;16.490;2023-08-20T02:05:19;99674.66;;;17.20;70.94
55373;BME280;70018;47.838;16.490;2023-08-20T02:07:47;99687.09;;;17.19;70.72
55373;BME280;70018;47.838;16.490;2023-08-20T02:10:14;99675.16;;;17.15;70.77
55373;BME280;70018;47.838;16.490;2023-08-20T02:12:41;99675.16;;;17.15;70.97
55373;BME280;70018;47.838;16.490;2023-08-20T02:15:08;99666.91;;;17.08;70.97
55373;BME280;70018;47.838;16.490;2023-08-20T02:17:35;99666.22;;;17.04;71.13
55373;BME280;70018;47.838;16.490;2023-08-20T02:20:03;99669.00;;;17.04;71.17
55373;BME280;70018;47.838;16.490;2023-08-20T02:22:36;99673.81;;;17.03;71.07
55373;BME280;70018;47.838;16.490;2023-08-20T02:25:03;99675.84;;;17.03;70.87
55373;BME280;70018;47.838;16.490;2023-08-20T02:27:30;99673.88;;;17.00;70.97
55373;BME280;70018;47.838;16.490;2023-08-20T02:29:56;99665.13;;;16.98;71.48
55373;BME280;70018;47.838;16.490;2023-08-20T02:32:23;99664.41;;;16.94;71.15
55373;BME280;70018;47.838;16.490;2023-08-20T02:34:51;99662.13;;;16.89;71.04
55373;BME280;70018;47.838;16.490;2023-08-20T02:37:18;99663.78;;;16.86;71.49
55373;BME280;70018;47.838;16.490;2023-08-20T02:39:44;99658.97;;;16.83;71.54
55373;BME280;70018;47.838;16.490;2023-08-20T02:42:11;99663.84;;;16.79;71.68
55373;BME280;70018;47.838;16.490;2023-08-20T02:44:38;99657.91;;;16.77;72.25
55373;BME280;70018;47.838;16.490;2023-08-20T02:47:04;99658.25;;;16.79;72.11
55373;BME280;70018;47.838;16.490;2023-08-20T02:49:31;99658.19;;;16.82;71.96
55373;BME280;70018;47.838;16.490;2023-08-20T02:51:58;99659.38;;;16.85;71.49
55373;BME280;70018;47.838;16.490;2023-08-20T02:54:24;99659.31;;;16.89;71.46
55373;BME280;70018;47.838;16.490;2023-08-20T02:56:52;99663.69;;;16.90;71.44
55373;BME280;70018;47.838;16.490;2023-08-20T02:59:19;99670.09;;;16.90;71.24
55373;BME280;70018;47.838;16.490;2023-08-20T03:01:45;99674.38;;;16.95;71.27
55373;BME280;70018;47.838;16.490;2023-08-20T03:04:12;99677.94;;;16.99;70.90
55373;BME280;70018;47.838;16.490;2023-08-20T03:06:39;99670.38;;;16.96;70.98
55373;BME280;70018;47.838;16.490;2023-08-20T03:09:05;99673.88;;;17.00;70.97
55373;BME280;70018;47.838;16.490;2023-08-20T03:11:32;99671.53;;;16.98;70.72
55373;BME280;70018;47.838;16.490;2023-08-20T03:13:59;99670.72;;;16.98;70.80
55373;BME280;70018;47.838;16.490;2023-08-20T03:16:25;99659.22;;;16.92;70.73
55373;BME280;70018;47.838;16.490;2023-08-20T03:18:52;99663.09;;;16.98;70.84
55373;BME280;70018;47.838;16.490;2023-08-20T03:21:18;99665.06;;;17.01;70.75
55373;BME280;70018;47.838;16.490;2023-08-20T03:23:45;99661.47;;;17.01;70.67
55373;BME280;70018;47.838;16.490;2023-08-20T03:26:12;99652.69;;;16.99;70.61
55373;BME280;70018;47.838;16.490;2023-08-20T03:28:39;99665.56;;;16.96;70.80
55373;BME280;70018;47.838;16.490;2023-08-20T03:31:05;99671.75;;;16.84;71.09
55373;BME280;70018;47.838;16.490;2023-08-20T03:33:32;99670.75;;;16.74;71.69
55373;BME280;70018;47.838;16.490;2023-08-20T03:35:58;99671.63;;;16.71;71.46
55373;BME280;70018;47.838;16.490;2023-08-20T03:38:25;99674.41;;;16.71;71.69
55373;BME280;70018;47.838;16.490;2023-08-20T03:40:54;99671.84;;;16.80;71.19
55373;BME280;70018;47.838;16.490;2023-08-20T03:43:21;99674.53;;;16.88;70.95
55373;BME280;70018;47.838;16.490;2023-08-20T03:45:51;99670.53;;;16.89;70.79
55373;BME280;70018;47.838;16.490;2023-08-20T03:48:19;99672.44;;;16.92;70.65
55373;BME280;70018;47.838;16.490;2023-08-20T03:50:46;99679.16;;;16.98;70.43
55373;BME280;70018;47.838;16.490;2023-08-20T03:53:13;99681.94;;;16.98;70.39
55373;BME280;70018;47.838;16.490;2023-08-20T03:55:40;99677.78;;;17.06;69.75
55373;BME280;70018;47.838;16.490;2023-08-20T03:58:07;99681.34;;;17.06;69.79
55373;BME280;70018;47.838;16.490;2023-08-20T04:00:35;99690.22;;;17.05;69.94
55373;BME280;70018;47.838;16.490;2023-08-20T04:03:02;99686.53;;;17.08;69.87
55373;BME280;70018;47.838;16.490;2023-08-20T04:05:29;99702.53;;;17.11;69.76
55373;BME280;70018;47.838;16.490;2023-08-20T04:07:55;99697.25;;;17.13;69.60
55373;BME280;70018;47.838;16.490;2023-08-20T04:10:22;99701.78;;;17.07;69.79
55373;BME280;70018;47.838;16.490;2023-08-20T04:12:49;99702.28;;;17.02;70.04
55373;BME280;70018;47.838;16.490;2023-08-20T04:15:15;99693.53;;;17.00;70.23
55373;BME280;70018;47.838;16.490;2023-08-20T04:17:42;99698.72;;;17.01;69.94
55373;BME280;70018;47.838;16.490;2023-08-20T04:20:09;99691.44;;;17.04;69.81
55373;BME280;70018;47.838;16.490;2023-08-20T04:22:37;99701.78;;;17.07;69.60
55373;BME280;70018;47.838;16.490;2023-08-20T04:25:05;99703.72;;;17.10;69.58
55373;BME280;70018;47.838;16.490;2023-08-20T04:27:32;99691.22;;;17.14;69.27
55373;BME280;70018;47.838;16.490;2023-08-20T04:30:00;99696.75;;;17.18;69.06
55373;BME280;70018;47.838;16.490;2023-08-20T04:32:26;99706.22;;;17.24;68.93
55373;BME280;70018;47.838;16.490;2023-08-20T04:34:53;99704.50;;;17.30;68.70
55373;BME280;70018;47.838;16.490;2023-08-20T04:37:20;99711.25;;;17.32;68.46
55373;BME280;70018;47.838;16.490;2023-08-20T04:39:47;99710.97;;;17.27;68.67
55373;BME280;70018;47.838;16.490;2023-08-20T04:42:14;99719.91;;;17.22;69.09
55373;BME280;70018;47.838;16.490;2023-08-20T04:44:40;99721.56;;;17.19;69.30
55373;BME280;70018;47.838;16.490;2023-08-20T04:47:11;99718.84;;;17.16;69.19
55373;BME280;70018;47.838;16.490;2023-08-20T04:49:39;99721.66;;;17.16;69.79
55373;BME280;70018;47.838;16.490;2023-08-20T04:52:05;99715.25;;;17.15;69.73
55373;BME280;70018;47.838;16.490;2023-08-20T04:54:32;99724.00;;;17.17;69.99
55373;BME280;70018;47.838;16.490;2023-08-20T04:56:58;99723.16;;;17.20;70.07
55373;BME280;70018;47.838;16.490;2023-08-20T04:59:25;99721.50;;;17.23;70.04
55373;BME280;70018;47.838;16.490;2023-08-20T05:01:52;99719.41;;;17.27;69.96
55373;BME280;70018;47.838;16.490;2023-08-20T05:04:19;99730.69;;;17.43;69.70
55373;BME280;70018;47.838;16.490;2023-08-20T05:06:45;99732.38;;;17.57;69.58
55373;BME280;70018;47.838;16.490;2023-08-20T05:09:12;99727.91;;;17.59;69.78
55373;BME280;70018;47.838;16.490;2023-08-20T05:11:38;99728.25;;;17.61;69.60
55373;BME280;70018;47.838;16.490;2023-08-20T05:14:05;99740.25;;;17.65;69.65
55373;BME280;70018;47.838;16.490;2023-08-20T05:16:32;99745.19;;;17.77;69.45
55373;BME280;70018;47.838;16.490;2023-08-20T05:18:58;99743.97;;;17.94;69.45
55373;BME280;70018;47.838;16.490;2023-08-20T05:21:25;99744.88;;;18.07;69.09
55373;BME280;70018;47.838;16.490;2023-08-20T05:23:52;99749.88;;;18.16;69.23
55373;BME280;70018;47.838;16.490;2023-08-20T05:26:18;99736.53;;;18.20;68.95
55373;BME280;70018;47.838;16.490;2023-08-20T05:28:45;99747.88;;;18.33;69.02
55373;BME280;70018;47.838;16.490;2023-08-20T05:31:12;99745.94;;;18.46;68.86
55373;BME280;70018;47.838;16.490;2023-08-20T05:33:38;99749.25;;;18.57;68.06
55373;BME280;70018;47.838;16.490;2023-08-20T05:36:05;99755.56;;;18.77;67.65
55373;BME280;70018;47.838;16.490;2023-08-20T05:38:32;99755.16;;;18.91;66.41
55373;BME280;70018;47.838;16.490;2023-08-20T05:40:58;99765.69;;;19.03;66.29
55373;BME280;70018;47.838;16.490;2023-08-20T05:43:25;99758.66;;;19.11;65.58
55373;BME280;70018;47.838;16.490;2023-08-20T05:45:52;99760.84;;;19.20;65.04
55373;BME280;70018;47.838;16.490;2023-08-20T05:48:18;99764.78;;;19.22;64.36
55373;BME280;70018;47.838;16.490;2023-08-20T05:50:45;99765.25;;;19.33;64.40
55373;BME280;70018;47.838;16.490;2023-08-20T05:53:12;99773.16;;;19.39;64.62
55373;BME280;70018;47.838;16.490;2023-08-20T05:55:38;99775.44;;;19.56;64.21
55373;BME280;70018;47.838;16.490;2023-08-20T05:58:06;99772.22;;;19.70;63.74
55373;BME280;70018;47.838;16.490;2023-08-20T06:00:32;99771.66;;;19.88;63.22
55373;BME280;70018;47.838;16.490;2023-08-20T06:02:59;99764.25;;;19.94;63.31
55373;BME280;70018;47.838;16.490;2023-08-20T06:05:26;99775.28;;;20.01;62.87
55373;BME280;70018;47.838;16.490;2023-08-20T06:07:52;99778.34;;;20.07;61.79
55373;BME280;70018;47.838;16.490;2023-08-20T06:10:19;99778.09;;;20.14;62.00
55373;BME280;70018;47.838;16.490;2023-08-20T06:12:46;99779.00;;;20.23;61.25
55373;BME280;70018;47.838;16.490;2023-08-20T06:15:13;99786.47;;;20.30;61.52
55373;BME280;70018;47.838;16.490;2023-08-20T06:17:40;99787.66;;;20.41;60.59
55373;BME280;70018;47.838;16.490;2023-08-20T06:20:07;99783.97;;;20.57;60.53
55373;BME280;70018;47.838;16.490;2023-08-20T06:22:35;99784.84;;;20.67;60.26
55373;BME280;70018;47.838;16.490;2023-08-20T06:25:02;99786.44;;;20.68;60.15
55373;BME280;70018;47.838;16.490;2023-08-20T06:27:29;99788.31;;;20.71;59.44
55373;BME280;70018;47.838;16.490;2023-08-20T06:29:56;99789.16;;;20.93;60.30
55373;BME280;70018;47.838;16.490;2023-08-20T06:32:23;99784.22;;;21.18;60.08
55373;BME280;70018;47.838;16.490;2023-08-20T06:34:50;99789.09;;;21.18;60.30
55373;BME280;70018;47.838;16.490;2023-08-20T06:37:17;99794.28;;;21.41;59.96
55373;BME280;70018;47.838;16.490;2023-08-20T06:39:43;99791.66;;;21.47;59.93
55373;BME280;70018;47.838;16.490;2023-08-20T06:42:10;99799.06;;;21.53;59.47
55373;BME280;70018;47.838;16.490;2023-08-20T06:44:37;99795.19;;;21.38;59.39
55373;BME280;70018;47.838;16.490;2023-08-20T06:47:04;99785.81;;;21.41;59.31
55373;BME280;70018;47.838;16.490;2023-08-20T06:49:30;99785.25;;;21.55;58.83
55373;BME280;70018;47.838;16.490;2023-08-20T06:51:57;99792.63;;;21.74;58.44
55373;BME280;70018;47.838;16.490;2023-08-20T06:54:23;99787.66;;;21.88;58.42
55373;BME280;70018;47.838;16.490;2023-08-20T06:56:50;99791.97;;;21.92;58.12
55373;BME280;70018;47.838;16.490;2023-08-20T06:59:16;99788.16;;;21.86;58.22
55373;BME280;70018;47.838;16.490;2023-08-20T07:01:46;99793.00;;;21.85;58.30
55373;BME280;70018;47.838;16.490;2023-08-20T07:04:12;99793.28;;;21.78;58.10
55373;BME280;70018;47.838;16.490;2023-08-20T07:06:39;99793.31;;;21.88;58.06
55373;BME280;70018;47.838;16.490;2023-08-20T07:09:06;99805.06;;;22.08;57.57
55373;BME280;70018;47.838;16.490;2023-08-20T07:11:33;99795.97;;;22.13;57.01
55373;BME280;70018;47.838;16.490;2023-08-20T07:13:59;99798.84;;;22.22;57.14
55373;BME280;70018;47.838;16.490;2023-08-20T07:16:26;99801.47;;;22.47;56.89
55373;BME280;70018;47.838;16.490;2023-08-20T07:18:52;99805.91;;;22.57;56.35
55373;BME280;70018;47.838;16.490;2023-08-20T07:21:19;99804.09;;;22.99;56.34
55373;BME280;70018;47.838;16.490;2023-08-20T07:23:46;99799.84;;;23.31;56.06
55373;BME280;70018;47.838;16.490;2023-08-20T07:26:12;99799.50;;;23.56;55.35
55373;BME280;70018;47.838;16.490;2023-08-20T07:28:40;99805.97;;;23.66;55.52
55373;BME280;70018;47.838;16.490;2023-08-20T07:31:27;99798.72;;;23.74;55.57
55373;BME280;70018;47.838;16.490;2023-08-20T07:33:55;99804.25;;;23.59;55.24
55373;BME280;70018;47.838;16.490;2023-08-20T07:36:24;99804.09;;;23.63;54.97
55373;BME280;70018;47.838;16.490;2023-08-20T07:38:52;99804.38;;;23.65;55.69
55373;BME280;70018;47.838;16.490;2023-08-20T07:41:20;99798.84;;;23.89;55.23
55373;BME280;70018;47.838;16.490;2023-08-20T07:43:47;99800.78;;;24.15;55.01
55373;BME280;70018;47.838;16.490;2023-08-20T07:46:15;99808.00;;;24.25;54.72
55373;BME280;70018;47.838;16.490;2023-08-20T07:48:42;99805.63;;;24.33;55.15
55373;BME280;70018;47.838;16.490;2023-08-20T07:51:09;99806.13;;;24.55;54.73
55373;BME280;70018;47.838;16.490;2023-08-20T07:53:36;99815.00;;;24.72;54.55
55373;BME280;70018;47.838;16.490;2023-08-20T07:56:03;99813.13;;;24.78;54.22
55373;BME280;70018;47.838;16.490;2023-08-20T07:58:30;99811.66;;;24.82;54.13
55373;BME280;70018;47.838;16.490;2023-08-20T08:00:57;99810.13;;;24.72;54.07
55373;BME280;70018;47.838;16.490;2023-08-20T08:03:26;99816.31;;;24.94;53.97
55373;BME280;70018;47.838;16.490;2023-08-20T08:05:56;99805.66;;;25.04;53.83
55373;BME280;70018;47.838;16.490;2023-08-20T08:08:23;99813.13;;;25.02;53.70
55373;BME280;70018;47.838;16.490;2023-08-20T08:10:50;99811.13;;;24.93;53.85
55373;BME280;70018;47.838;16.490;2023-08-20T08:13:21;99806.56;;;25.10;53.48
55373;BME280;70018;47.838;16.490;2023-08-20T08:15:48;99812.97;;;25.20;53.10
55373;BME280;70018;47.838;16.490;2023-08-20T08:18:15;99817.09;;;25.19;53.15
55373;BME280;70018;47.838;16.490;2023-08-20T08:20:42;99819.59;;;25.40;52.42
55373;BME280;70018;47.838;16.490;2023-08-20T08:23:09;99827.06;;;25.52;52.26
55373;BME280;70018;47.838;16.490;2023-08-20T08:25:35;99813.94;;;25.70;51.85
55373;BME280;70018;47.838;16.490;2023-08-20T08:28:04;99816.31;;;25.86;51.85
55373;BME280;70018;47.838;16.490;2023-08-20T08:30:31;99818.78;;;25.93;51.45
55373;BME280;70018;47.838;16.490;2023-08-20T08:32:58;99815.91;;;25.78;51.36
55373;BME280;70018;47.838;16.490;2023-08-20T08:35:25;99817.81;;;25.96;51.28
55373;BME280;70018;47.838;16.490;2023-08-20T08:37:51;99813.34;;;26.24;51.24
55373;BME280;70018;47.838;16.490;2023-08-20T08:40:18;99820.09;;;26.41;50.42
55373;BME280;70018;47.838;16.490;2023-08-20T08:42:48;99816.22;;;26.59;50.25
55373;BME280;70018;47.838;16.490;2023-08-20T08:45:18;99817.84;;;26.80;49.84
55373;BME280;70018;47.838;16.490;2023-08-20T08:47:47;99821.31;;;26.69;49.37
55373;BME280;70018;47.838;16.490;2023-08-20T08:50:14;99815.00;;;26.45;49.20
55373;BME280;70018;47.838;16.490;2023-08-20T08:52:41;99821.38;;;26.40;48.73
55373;BME280;70018;47.838;16.490;2023-08-20T08:55:08;99819.94;;;26.65;48.79
55373;BME280;70018;47.838;16.490;2023-08-20T08:57:38;99816.75;;;26.77;48.66
55373;BME280;70018;47.838;16.490;2023-08-20T09:00:05;99814.75;;;26.98;48.19
55373;BME280;70018;47.838;16.490;2023-08-20T09:02:33;99811.50;;;27.31;47.70
55373;BME280;70018;47.838;16.490;2023-08-20T09:05:00;99819.63;;;27.38;47.39
55373;BME280;70018;47.838;16.490;2023-08-20T09:07:27;99821.31;;;27.50;46.94
55373;BME280;70018;47.838;16.490;2023-08-20T09:09:58;99819.00;;;27.74;46.54
55373;BME280;70018;47.838;16.490;2023-08-20T09:12:27;99831.53;;;27.82;46.42
55373;BME280;70018;47.838;16.490;2023-08-20T09:14:55;99830.78;;;27.62;46.55
55373;BME280;70018;47.838;16.490;2023-08-20T09:17:28;99829.69;;;27.33;46.30
55373;BME280;70018;47.838;16.490;2023-08-20T09:19:55;99828.47;;;27.20;46.77
55373;BME280;70018;47.838;16.490;2023-08-20T09:22:23;99836.66;;;27.32;46.72
55373;BME280;70018;47.838;16.490;2023-08-20T09:24:55;99839.63;;;27.43;45.20
55373;BME280;70018;47.838;16.490;2023-08-20T09:27:22;99834.72;;;27.44;45.71
55373;BME280;70018;47.838;16.490;2023-08-20T09:29:54;99832.47;;;27.74;46.03
55373;BME280;70018;47.838;16.490;2023-08-20T09:32:26;99844.06;;;27.90;45.12
55373;BME280;70018;47.838;16.490;2023-08-20T09:34:55;99833.72;;;27.98;45.74
55373;BME280;70018;47.838;16.490;2023-08-20T09:37:23;99838.28;;;27.85;45.69
55373;BME280;70018;47.838;16.490;2023-08-20T09:39:50;99838.22;;;27.79;45.75
55373;BME280;70018;47.838;16.490;2023-08-20T09:42:17;99835.31;;;27.99;45.75
55373;BME280;70018;47.838;16.490;2023-08-20T09:44:45;99835.94;;;28.40;45.03
55373;BME280;70018;47.838;16.490;2023-08-20T09:47:16;99831.88;;;28.52;44.62
55373;BME280;70018;47.838;16.490;2023-08-20T09:49:46;99829.38;;;28.65;44.85
55373;BME280;70018;47.838;16.490;2023-08-20T09:52:25;99830.63;;;28.59;44.38
55373;BME280;70018;47.838;16.490;2023-08-20T09:55:08;99824.84;;;28.53;44.32
55373;BME280;70018;47.838;16.490;2023-08-20T09:57:37;99826.28;;;28.69;44.77
55373;BME280;70018;47.838;16.490;2023-08-20T10:00:05;99828.03;;;28.61;44.71
55373;BME280;70018;47.838;16.490;2023-08-20T10:02:33;99826.00;;;28.67;44.57
55373;BME280;70018;47.838;16.490;2023-08-20T10:05:11;99824.56;;;28.88;44.49
55373;BME280;70018;47.838;16.490;2023-08-20T10:07:38;99823.00;;;28.87;44.33
55373;BME280;70018;47.838;16.490;2023-08-20T10:10:06;99818.44;;;29.06;43.79
55373;BME280;70018;47.838;16.490;2023-08-20T10:12:35;99822.94;;;28.76;43.76
55373;BME280;70018;47.838;16.490;2023-08-20T10:15:03;99815.31;;;28.62;43.62
55373;BME280;70018;47.838;16.490;2023-08-20T10:17:32;99827.22;;;28.24;44.25
55373;BME280;70018;47.838;16.490;2023-08-20T10:20:04;99815.59;;;28.01;44.41
55373;BME280;70018;47.838;16.490;2023-08-20T10:22:44;99812.28;;;27.77;44.19
55373;BME280;70018;47.838;16.490;2023-08-20T10:25:12;99818.31;;;27.85;44.00
55373;BME280;70018;47.838;16.490;2023-08-20T10:27:40;99813.63;;;28.07;42.77
55373;BME280;70018;47.838;16.490;2023-08-20T10:30:10;99810.69;;;28.02;42.96
55373;BME280;70018;47.838;16.490;2023-08-20T10:32:49;99815.25;;;28.20;42.30
55373;BME280;70018;47.838;16.490;2023-08-20T10:38:06;99816.25;;;28.48;41.02
55373;BME280;70018;47.838;16.490;2023-08-20T10:40:52;99815.59;;;28.27;38.67
55373;BME280;70018;47.838;16.490;2023-08-20T10:46:15;99808.91;;;28.04;38.46
55373;BME280;70018;47.838;16.490;2023-08-20T10:48:47;99815.06;;;28.29;39.46
55373;BME280;70018;47.838;16.490;2023-08-20T10:51:15;99816.91;;;28.68;39.02
55373;BME280;70018;47.838;16.490;2023-08-20T10:53:48;99810.44;;;28.73;38.83
55373;BME280;70018;47.838;16.490;2023-08-20T10:56:15;99794.00;;;28.21;37.58
55373;BME280;70018;47.838;16.490;2023-08-20T10:58:45;99812.03;;;28.43;40.08
55373;BME280;70018;47.838;16.490;2023-08-20T11:01:17;99805.97;;;28.25;38.31
55373;BME280;70018;47.838;16.490;2023-08-20T11:03:45;99814.56;;;28.30;39.33
55373;BME280;70018;47.838;16.490;2023-08-20T11:06:12;99796.66;;;28.66;39.29
55373;BME280;70018;47.838;16.490;2023-08-20T11:08:39;99811.31;;;28.12;40.22
55373;BME280;70018;47.838;16.490;2023-08-20T11:11:10;99801.69;;;27.12;40.05
55373;BME280;70018;47.838;16.490;2023-08-20T11:13:37;99800.81;;;26.65;41.84
55373;BME280;70018;47.838;16.490;2023-08-20T11:16:05;99790.47;;;26.33;41.73
55373;BME280;70018;47.838;16.490;2023-08-20T11:18:32;99791.97;;;26.14;42.91
55373;BME280;70018;47.838;16.490;2023-08-20T11:21:00;99794.25;;;26.10;42.42
55373;BME280;70018;47.838;16.490;2023-08-20T11:23:28;99795.56;;;26.78;41.45
55373;BME280;70018;47.838;16.490;2023-08-20T11:25:56;99790.84;;;27.62;40.74
55373;BME280;70018;47.838;16.490;2023-08-20T11:28:24;99792.00;;;28.32;39.36
55373;BME280;70018;47.838;16.490;2023-08-20T11:30:51;99787.34;;;28.77;39.50
55373;BME280;70018;47.838;16.490;2023-08-20T11:33:18;99788.44;;;28.91;39.24
55373;BME280;70018;47.838;16.490;2023-08-20T11:35:44;99782.38;;;28.66;38.77
55373;BME280;70018;47.838;16.490;2023-08-20T11:38:11;99783.16;;;28.67;39.70
55373;BME280;70018;47.838;16.490;2023-08-20T11:40:38;99781.53;;;29.08;38.97
55373;BME280;70018;47.838;16.490;2023-08-20T11:43:05;99782.09;;;29.12;39.00
55373;BME280;70018;47.838;16.490;2023-08-20T11:45:32;99777.44;;;28.67;38.89
55373;BME280;70018;47.838;16.490;2023-08-20T11:47:59;99775.41;;;27.74;39.45
55373;BME280;70018;47.838;16.490;2023-08-20T11:50:26;99776.31;;;27.14;40.01
55373;BME280;70018;47.838;16.490;2023-08-20T11:52:53;99779.47;;;27.16;39.64
55373;BME280;70018;47.838;16.490;2023-08-20T11:55:24;99779.09;;;26.88;38.60
55373;BME280;70018;47.838;16.490;2023-08-20T11:57:52;99770.75;;;27.25;38.75
55373;BME280;70018;47.838;16.490;2023-08-20T12:00:26;99769.94;;;28.01;37.39
55373;BME280;70018;47.838;16.490;2023-08-20T12:02:54;99774.75;;;28.16;37.52
55373;BME280;70018;47.838;16.490;2023-08-20T12:05:30;99769.59;;;28.20;38.05
55373;BME280;70018;47.838;16.490;2023-08-20T12:07:57;99762.31;;;28.61;37.13
55373;BME280;70018;47.838;16.490;2023-08-20T12:10:26;99769.13;;;28.69;37.38
55373;BME280;70018;47.838;16.490;2023-08-20T12:12:54;99762.53;;;28.52;36.90
55373;BME280;70018;47.838;16.490;2023-08-20T12:15:22;99767.69;;;28.48;37.29
55373;BME280;70018;47.838;16.490;2023-08-20T12:18:03;99762.47;;;28.46;37.30
55373;BME280;70018;47.838;16.490;2023-08-20T12:20:35;99759.47;;;28.61;37.50
55373;BME280;70018;47.838;16.490;2023-08-20T12:23:04;99757.28;;;28.45;37.61
55373;BME280;70018;47.838;16.490;2023-08-20T12:25:32;99767.09;;;28.75;37.41
55373;BME280;70018;47.838;16.490;2023-08-20T12:28:01;99764.72;;;28.73;37.37
55373;BME280;70018;47.838;16.490;2023-08-20T12:30:29;99761.56;;;28.66;37.39
55373;BME280;70018;47.838;16.490;2023-08-20T12:32:55;99761.91;;;28.79;37.35
55373;BME280;70018;47.838;16.490;2023-08-20T12:35:22;99766.09;;;28.89;36.64
55373;BME280;70018;47.838;16.490;2023-08-20T12:37:49;99761.44;;;28.92;36.83
55373;BME280;70018;47.838;16.490;2023-08-20T12:40:16;99757.00;;;28.85;35.72
55373;BME280;70018;47.838;16.490;2023-08-20T12:42:43;99759.25;;;28.64;34.58
55373;BME280;70018;47.838;16.490;2023-08-20T12:45:10;99751.22;;;28.32;32.95
55373;BME280;70018;47.838;16.490;2023-08-20T12:47:39;99753.28;;;28.26;33.94
55373;BME280;70018;47.838;16.490;2023-08-20T12:50:06;99744.03;;;28.42;34.48
55373;BME280;70018;47.838;16.490;2023-08-20T12:52:33;99745.72;;;28.59;33.70
55373;BME280;70018;47.838;16.490;2023-08-20T12:55:00;99746.19;;;29.11;34.13
55373;BME280;70018;47.838;16.490;2023-08-20T12:57:27;99736.84;;;29.11;33.84
55373;BME280;70018;47.838;16.490;2023-08-20T12:59:53;99739.25;;;29.34;34.25
55373;BME280;70018;47.838;16.490;2023-08-20T13:02:20;99742.19;;;29.68;33.37
55373;BME280;70018;47.838;16.490;2023-08-20T13:04:47;99739.06;;;29.82;33.69